Flight Track Log - Related Links

Times and Time Zones

All times are in EDT time to prevent confusion due to time zone crossing. See the SWA940 flight status page for this flight to view local times or setup timezone preferences in your user account.

Time Position Orientation Groundspeed Altitude Reporting Facility
EDT Latitude Longitude Course Direction KTS MPH feet Rate Location/Type
Sun 01:55:31 PM 42.3833 -71.0167 298° West 165 190 900  Level KA90
Sun 01:56:06 PM 42.3953 -71.0472 298° West 175 201 1,800 1,875 Climbing Boston Center
Sun 01:57:07 PM 42.4022 -71.1219 277° West 212 244 3,900 2,557 Climbing Boston Center
Sun 01:58:08 PM 42.3589 -71.2008 233° Southwest 260 299 7,000 3,000 Climbing Boston Center
Sun 01:59:11 PM 42.3208 -71.2858 239° Southwest 257 296 10,100 2,195 Climbing Boston Center
Sun 02:00:11 PM 42.2911 -71.4000 251° West 311 358 11,500 2,182 Climbing Boston Center
Sun 02:01:12 PM 42.2608 -71.5147 250° West 325 374 14,500 2,410 Climbing Boston Center
Sun 02:02:13 PM 42.2297 -71.6353 251° West 338 389 16,400 2,083 Climbing Boston Center
Sun 02:03:13 PM 42.1919 -71.7703 249° West 355 409 18,700 1,918 Climbing Boston Center
Sun 02:04:15 PM 42.1628 -71.8811 250° West 355 409 20,300 1,632 Climbing Boston Center
Sun 02:05:18 PM 42.1022 -71.9989 235° Southwest 377 434 22,100 1,584 Climbing Boston Center
Sun 02:06:20 PM 42.0422 -72.1172 236° Southwest 382 440 23,600 1,525 Climbing Boston Center
Sun 02:07:20 PM 41.9797 -72.2394 236° Southwest 391 450 25,200 1,550 Climbing Boston Center
Sun 02:08:20 PM 41.9181 -72.3608 236° Southwest 391 450 26,700 1,869 Climbing Boston Center
Sun 02:09:22 PM 41.8444 -72.5058 236° Southwest 392 451 29,000 1,820 Climbing Boston Center
Sun 02:10:22 PM 41.7844 -72.6219 235° Southwest 381 438 30,400 1,210 Climbing Boston Center
Sun 02:11:26 PM 41.7242 -72.7367 235° Southwest 377 434 31,500 768 Climbing Boston Center
Sun 02:12:27 PM 41.6642 -72.8517 235° Southwest 377 434 32,000 248 Climbing Boston Center
Sun 02:13:27 PM 41.6050 -72.9656 235° Southwest 375 432 32,000  Level Boston Center
Sun 02:14:29 PM 41.5456 -73.0794 235° Southwest 374 430 32,000  Level Boston Center
Sun 02:15:30 PM 41.4814 -73.2011 235° Southwest 373 429 32,000  Level Boston Center
Sun 02:16:31 PM 41.4228 -73.3119 235° Southwest 371 427 32,000  Level Boston Center
Sun 02:17:32 PM 41.3639 -73.4244 235° Southwest 371 427 32,000  Level Boston Center
Sun 02:18:36 PM 41.3039 -73.5347 234° Southwest 371 427 32,000  Level Boston Center
Sun 02:19:37 PM 41.2431 -73.6447 234° Southwest 371 427 32,000  Level Boston Center
Sun 02:20:38 PM 41.1792 -73.7531 232° Southwest 374 430 32,000  Level Boston Center
Sun 02:21:39 PM 41.1022 -73.8792 231° Southwest 370 426 32,000  Level Boston Center
Sun 02:22:39 PM 41.0397 -73.9853 232° Southwest 369 425 32,000  Level Boston Center
Sun 02:23:41 PM 40.9764 -74.0900 231° Southwest 367 422 32,000  Level Boston Center
Sun 02:24:44 PM 40.9144 -74.1956 232° Southwest 367 422 32,000 -927 Level Boston Center
Sun 02:25:44 PM 40.8497 -74.3003 231° Southwest 367 422 30,100 -2,016 Descending Boston Center
Sun 02:26:46 PM 40.7814 -74.4136 231° Southwest 380 437 27,900 -1,024 Descending Boston Center
Sun 02:27:47 PM 40.7172 -74.5206 232° Southwest 378 435 28,000 65 Climbing Boston Center
Sun 02:28:18 PM 40.6792 -74.5825 231° Southwest 367 422 28,000  Level New York Center
Sun 02:29:20 PM 40.6139 -74.6886 231° Southwest 370 426 28,000  Level New York Center
Sun 02:30:22 PM 40.5467 -74.7944 230° Southwest 376 433 28,000 -484 Level New York Center
Sun 02:31:24 PM 40.4606 -74.9153 227° Southwest 393 452 27,000 -1,161 Descending New York Center
Sun 02:32:26 PM 40.3872 -75.0169 227° Southwest 385 443 25,600 -1,344 Descending New York Center
Sun 02:33:29 PM 40.3114 -75.1247 227° Southwest 377 434 24,200 -1,776 Descending New York Center
Sun 02:34:31 PM 40.2422 -75.2208 227° Southwest 364 419 21,900 -2,274 Descending New York Center
Sun 02:35:33 PM 40.1781 -75.3103 227° Southwest 362 417 19,500 -1,887 Descending New York Center
Sun 02:36:35 PM 40.1014 -75.4172 227° Southwest 359 413 18,000 -726 Descending New York Center
Sun 02:37:37 PM 40.0303 -75.5158 227° Southwest 352 405 18,000  Level New York Center
Sun 02:38:39 PM 39.9625 -75.6097 227° Southwest 355 409 18,000  Level New York Center
Sun 02:39:41 PM 39.8922 -75.7181 230° Southwest 365 420 18,000 -528 Level New York Center
Sun 02:40:44 PM 39.8356 -75.8278 236° Southwest 366 421 16,900 -2,256 Descending New York Center
Sun 02:41:46 PM 39.7725 -75.9531 237° Southwest 375 432 13,300 -2,177 Descending New York Center
Sun 02:42:48 PM 39.7200 -76.0461 234° Southwest 327 376 12,400 -629 Descending New York Center
Sun 02:43:50 PM 39.6731 -76.1367 236° Southwest 291 335 12,000 -726 Descending New York Center
Sun 02:44:52 PM 39.6281 -76.2258 237° Southwest 286 329 10,900 -1,065 Descending New York Center
Sun 02:45:54 PM 39.5786 -76.3114 233° Southwest 279 321 9,800 -1,355 Descending New York Center
Sun 02:46:56 PM 39.5122 -76.3656 212° Southwest 282 325 8,100 -1,584 Descending New York Center
Sun 02:47:59 PM 39.4483 -76.4222 214° Southwest 278 320 6,500 -1,646 Descending New York Center
Sun 02:48:49 PM 39.4000 -76.4667 215° Southwest 269 310 5,000 -1,442 Descending Potomac TRACON
Sun 02:49:43 PM 39.3333 -76.5167 210° Southwest 261 300 4,000 -526 Descending Potomac TRACON
Sun 02:50:43 PM 39.2667 -76.5500 201° Southwest 259 298 4,000 -496 Level Potomac TRACON
Sun 02:51:44 PM 39.2167 -76.5000 142° Southeast 234 269 3,000 -1,091 Descending Potomac TRACON
Sun 02:52:44 PM 39.1667 -76.5333 207° Southwest 209 241 1,800 -950 Descending Potomac TRACON
Sun 02:53:44 PM 39.1667 -76.6000 270° West 158 182 1,100 -700 Descending Potomac TRACON

Login

Don't have an account? Register now (free) for customized features, flight alerts, and more!